createdAt,value
2023-12-14T00:00:29.593Z,14.70
2023-12-14T00:02:57.632Z,15.57
2023-12-14T00:05:25.416Z,13.57
2023-12-14T00:07:53.185Z,14.15
2023-12-14T00:10:21.431Z,11.73
2023-12-14T00:12:52.517Z,14.32
2023-12-14T00:15:20.231Z,14.55
2023-12-14T00:17:48.116Z,13.30
2023-12-14T00:20:16.429Z,12.13
2023-12-14T00:22:44.472Z,12.13
2023-12-14T00:25:12.442Z,11.48
2023-12-14T00:27:43.119Z,11.82
2023-12-14T00:30:14.597Z,9.90
2023-12-14T00:32:42.753Z,11.35
2023-12-14T00:35:10.601Z,13.00
2023-12-14T00:37:38.318Z,12.10
2023-12-14T00:40:07.442Z,11.40
2023-12-14T00:42:35.722Z,10.95
2023-12-14T00:45:03.936Z,11.05
2023-12-14T00:47:34.931Z,12.88
2023-12-14T00:50:03.048Z,9.45
2023-12-14T00:52:30.822Z,12.70
2023-12-14T00:54:58.724Z,10.02
2023-12-14T00:57:26.915Z,10.52
2023-12-14T00:59:55.735Z,11.02
2023-12-14T01:02:23.885Z,9.50
2023-12-14T01:04:54.281Z,10.18
2023-12-14T01:07:22.383Z,12.98
2023-12-14T01:09:50.629Z,9.73
2023-12-14T01:12:18.565Z,9.98
2023-12-14T01:14:46.436Z,9.73
2023-12-14T01:17:14.460Z,10.25
2023-12-14T01:19:42.950Z,8.73
2023-12-14T01:22:13.740Z,9.15
2023-12-14T01:24:41.854Z,10.07
2023-12-14T01:27:11.688Z,8.73
2023-12-14T01:29:42.797Z,9.75
2023-12-14T01:32:10.791Z,8.55
2023-12-14T01:34:38.914Z,9.15
2023-12-14T01:37:06.905Z,8.43
2023-12-14T01:39:39.859Z,8.15
2023-12-14T01:42:08.708Z,9.07
2023-12-14T01:44:36.702Z,7.97
2023-12-14T01:47:04.848Z,7.97
2023-12-14T01:49:32.904Z,8.43
2023-12-14T01:52:00.984Z,8.73
2023-12-14T01:54:28.969Z,8.75
2023-12-14T01:56:59.459Z,8.90
2023-12-14T01:59:27.564Z,8.13
2023-12-14T02:01:58.214Z,8.45
2023-12-14T02:04:32.396Z,7.72
2023-12-14T02:07:00.351Z,8.68
2023-12-14T02:09:28.428Z,8.18
2023-12-14T02:11:59.049Z,10.20
2023-12-14T02:14:27.126Z,9.05
2023-12-14T02:16:55.128Z,7.65
2023-12-14T02:19:23.172Z,7.45
2023-12-14T02:21:51.149Z,9.63
2023-12-14T02:24:21.709Z,9.43
2023-12-14T02:27:02.202Z,9.73
2023-12-14T02:29:32.505Z,7.28
2023-12-14T02:32:00.457Z,7.90
2023-12-14T02:34:28.813Z,8.65
2023-12-14T02:36:56.538Z,8.70
2023-12-14T02:39:27.240Z,9.32
2023-12-14T02:41:55.020Z,9.27
2023-12-14T02:44:23.001Z,7.97
2023-12-14T02:46:50.808Z,7.70
2023-12-14T02:49:19.505Z,8.40
2023-12-14T02:51:47.571Z,7.00
2023-12-14T02:54:15.545Z,9.65
2023-12-14T02:56:46.124Z,7.63
2023-12-14T02:59:14.076Z,8.10
2023-12-14T03:01:42.116Z,8.40
2023-12-14T03:04:11.799Z,9.32
2023-12-14T03:06:39.601Z,8.10
2023-12-14T03:09:07.693Z,8.05
2023-12-14T03:11:35.432Z,6.85
2023-12-14T03:14:05.949Z,8.02
2023-12-14T03:16:33.982Z,7.78
2023-12-14T03:19:01.908Z,6.55
2023-12-14T03:21:29.776Z,7.30
2023-12-14T03:23:57.737Z,9.15
2023-12-14T03:26:29.638Z,8.63
2023-12-14T03:28:59.378Z,7.35
2023-12-14T03:31:30.016Z,7.20
2023-12-14T03:33:58.189Z,7.50
2023-12-14T03:36:27.894Z,7.95
2023-12-14T03:38:55.901Z,6.55
2023-12-14T03:41:23.704Z,6.18
2023-12-14T03:43:51.337Z,7.60
2023-12-14T03:46:19.127Z,9.02
2023-12-14T03:48:49.713Z,7.13
2023-12-14T03:51:20.283Z,7.30
2023-12-14T03:53:48.123Z,7.88
2023-12-14T03:56:16.683Z,7.45
2023-12-14T03:58:44.420Z,7.03
2023-12-14T04:01:18.387Z,6.60
2023-12-14T04:03:49.684Z,6.07
2023-12-14T04:06:18.121Z,6.63
2023-12-14T04:08:46.407Z,5.30
2023-12-14T04:11:15.035Z,7.03
2023-12-14T04:13:43.052Z,5.10
2023-12-14T04:16:10.810Z,6.93
2023-12-14T04:18:39.177Z,6.65
2023-12-14T04:21:09.841Z,6.00
2023-12-14T04:23:37.693Z,6.88
2023-12-14T04:26:05.994Z,6.88
2023-12-14T04:28:34.093Z,6.18
2023-12-14T04:31:02.284Z,6.53
2023-12-14T04:33:30.290Z,6.22
2023-12-14T04:35:58.204Z,5.90
2023-12-14T04:38:31.105Z,7.03
2023-12-14T04:40:58.787Z,6.25
2023-12-14T04:43:26.426Z,5.60
2023-12-14T04:45:54.041Z,5.78
2023-12-14T04:48:21.743Z,5.80
2023-12-14T04:50:49.511Z,6.72
2023-12-14T04:53:17.225Z,6.35
2023-12-14T04:55:47.692Z,6.85
2023-12-14T04:58:15.384Z,6.78
2023-12-14T05:00:43.134Z,6.60
2023-12-14T05:03:10.696Z,5.93
2023-12-14T05:05:40.753Z,4.97
2023-12-14T05:08:08.686Z,5.20
2023-12-14T05:10:37.344Z,4.93
2023-12-14T05:13:08.082Z,5.63
2023-12-14T05:15:35.962Z,6.25
2023-12-14T05:18:04.228Z,6.25
2023-12-14T05:20:33.274Z,6.60
2023-12-14T05:23:01.147Z,5.97
2023-12-14T05:25:29.127Z,6.47
2023-12-14T05:27:57.083Z,6.15
2023-12-14T05:30:29.740Z,5.55
2023-12-14T05:32:57.620Z,5.38
2023-12-14T05:35:25.571Z,6.82
2023-12-14T05:37:53.343Z,6.93
2023-12-14T05:40:21.285Z,5.93
2023-12-14T05:42:48.842Z,5.65
2023-12-14T05:45:16.862Z,6.20
2023-12-14T05:47:47.313Z,7.13
2023-12-14T05:50:15.169Z,6.57
2023-12-14T05:52:43.040Z,5.90
2023-12-14T05:55:14.007Z,5.63
2023-12-14T05:57:41.858Z,5.55
2023-12-14T06:00:10.429Z,5.30
2023-12-14T06:02:39.375Z,5.10
2023-12-14T06:05:10.660Z,5.45
2023-12-14T06:07:39.122Z,6.20
2023-12-14T06:10:08.284Z,6.70
2023-12-14T06:12:36.437Z,4.72
2023-12-14T06:15:04.817Z,5.70
2023-12-14T06:17:34.088Z,4.93
2023-12-14T06:20:02.014Z,5.10
2023-12-14T06:22:32.285Z,7.72
2023-12-14T06:25:00.109Z,6.15
2023-12-14T06:27:28.047Z,5.97
2023-12-14T06:29:55.643Z,7.47
2023-12-14T06:32:23.093Z,6.68
2023-12-14T06:34:56.062Z,7.50
2023-12-14T06:37:23.915Z,7.03
2023-12-14T06:39:54.383Z,5.53
2023-12-14T06:42:22.834Z,6.50
2023-12-14T06:44:50.891Z,7.88
2023-12-14T06:47:18.517Z,7.18
2023-12-14T06:49:46.455Z,5.63
2023-12-14T06:52:14.462Z,7.80
2023-12-14T06:54:42.426Z,7.30
2023-12-14T06:57:12.626Z,14.77
2023-12-14T06:59:40.406Z,8.95
2023-12-14T07:02:08.866Z,10.27
2023-12-14T07:04:36.656Z,11.18
2023-12-14T07:07:04.902Z,7.47
2023-12-14T07:09:32.686Z,9.60
2023-12-14T07:12:02.906Z,10.20
2023-12-14T07:14:33.594Z,11.82
2023-12-14T07:17:01.457Z,9.30
2023-12-14T07:19:32.220Z,9.68
2023-12-14T07:22:00.089Z,9.75
2023-12-14T07:24:28.615Z,45.78
2023-12-14T07:26:57.287Z,22.08
2023-12-14T07:29:24.750Z,26.83
2023-12-14T07:31:55.098Z,19.75
2023-12-14T07:34:22.909Z,16.92
2023-12-14T07:36:50.822Z,16.33
2023-12-14T07:39:18.690Z,20.67
2023-12-14T07:41:46.464Z,19.65
2023-12-14T07:44:14.226Z,18.50
2023-12-14T07:46:44.056Z,11.57
2023-12-14T07:49:14.582Z,9.25
2023-12-14T07:51:42.496Z,16.13
2023-12-14T07:54:10.150Z,10.57
2023-12-14T07:56:37.897Z,7.13
2023-12-14T07:59:08.262Z,7.88
2023-12-14T08:01:36.025Z,10.07
2023-12-14T08:04:05.458Z,11.38
2023-12-14T08:06:36.138Z,11.82
2023-12-14T08:09:05.097Z,12.13
2023-12-14T08:11:32.714Z,8.95
2023-12-14T08:14:00.742Z,16.65
2023-12-14T08:16:29.053Z,61.88
2023-12-14T08:18:57.028Z,34.08
2023-12-14T08:21:25.434Z,30.52
2023-12-14T08:23:55.679Z,35.38
2023-12-14T08:26:23.499Z,28.55
2023-12-14T08:28:51.466Z,17.25
2023-12-14T08:31:19.373Z,18.58
2023-12-14T08:33:49.358Z,22.45
2023-12-14T08:36:18.539Z,13.32
2023-12-14T08:38:46.340Z,20.67
2023-12-14T08:41:17.226Z,16.85
2023-12-14T08:43:45.635Z,16.05
2023-12-14T08:46:13.358Z,12.18
2023-12-14T08:48:43.798Z,14.30
2023-12-14T08:51:13.540Z,12.55
2023-12-14T08:53:41.372Z,26.17
2023-12-14T08:56:10.717Z,22.48
2023-12-14T08:58:43.708Z,16.35
2023-12-14T09:01:11.426Z,19.70
2023-12-14T09:03:39.092Z,20.88
2023-12-14T09:06:07.384Z,17.25
2023-12-14T09:08:35.454Z,42.28
2023-12-14T09:11:04.092Z,29.08
2023-12-14T09:13:32.543Z,30.02
2023-12-14T09:16:03.145Z,22.30
2023-12-14T09:18:32.041Z,25.73
2023-12-14T09:21:00.017Z,20.00
2023-12-14T09:23:27.835Z,22.75
2023-12-14T09:25:57.772Z,19.33
2023-12-14T09:28:26.374Z,25.20
2023-12-14T09:30:54.094Z,22.88
2023-12-14T09:33:24.712Z,13.52
2023-12-14T09:35:52.734Z,14.65
2023-12-14T09:38:21.001Z,14.23
2023-12-14T09:40:49.107Z,11.73
2023-12-14T09:43:16.751Z,11.57
2023-12-14T09:45:46.718Z,17.75
2023-12-14T09:48:17.160Z,14.02
2023-12-14T09:50:48.077Z,8.20
2023-12-14T09:53:16.290Z,16.73
2023-12-14T09:55:44.288Z,9.65
2023-12-14T09:58:13.086Z,9.25
2023-12-14T10:00:43.025Z,9.30
2023-12-14T10:03:22.615Z,8.63
2023-12-14T10:05:53.600Z,6.95
2023-12-14T10:08:22.033Z,9.30
2023-12-14T10:10:52.791Z,6.75
2023-12-14T10:13:20.866Z,6.60
2023-12-14T10:15:51.999Z,6.60
2023-12-14T10:18:26.788Z,9.90
2023-12-14T10:20:58.377Z,11.70
2023-12-14T10:23:26.534Z,8.55
2023-12-14T10:25:54.793Z,9.60
2023-12-14T10:28:23.725Z,15.82
2023-12-14T10:30:52.736Z,8.38
2023-12-14T10:33:22.512Z,7.47
2023-12-14T10:35:51.328Z,8.70
2023-12-14T10:38:22.222Z,6.28
2023-12-14T10:40:52.904Z,27.45
2023-12-14T10:43:45.350Z,15.50
2023-12-14T10:46:12.856Z,12.63
2023-12-14T10:48:45.596Z,16.17
2023-12-14T10:51:14.655Z,11.23
2023-12-14T10:53:51.038Z,12.77
2023-12-14T10:56:20.187Z,8.57
2023-12-14T10:58:50.270Z,14.27
2023-12-14T11:01:20.325Z,9.15
2023-12-14T11:03:49.278Z,9.50
2023-12-14T11:06:32.961Z,7.22
2023-12-14T11:09:09.697Z,7.25
2023-12-14T11:11:45.292Z,8.60
2023-12-14T11:14:21.630Z,6.97
2023-12-14T11:16:51.159Z,7.10
2023-12-14T11:19:37.926Z,8.90
2023-12-14T11:22:28.988Z,6.45
2023-12-14T11:24:59.820Z,8.98
2023-12-14T11:27:29.779Z,5.50
2023-12-14T11:29:58.441Z,7.57
2023-12-14T11:32:27.235Z,5.85
2023-12-14T11:34:56.594Z,5.32
2023-12-14T11:37:24.538Z,7.72
2023-12-14T11:39:53.460Z,6.18
2023-12-14T11:42:24.033Z,11.57
2023-12-14T11:44:51.812Z,10.05
2023-12-14T11:47:19.430Z,10.25
2023-12-14T11:49:47.298Z,8.13
2023-12-14T11:52:15.045Z,7.07
2023-12-14T12:08:02.536Z,16.87
2023-12-14T12:10:30.810Z,18.92
2023-12-14T12:13:02.052Z,18.33
2023-12-14T12:15:30.068Z,17.30
2023-12-14T12:17:57.923Z,22.00
2023-12-14T12:20:27.544Z,17.33
2023-12-14T12:22:55.881Z,15.68
2023-12-14T12:25:28.423Z,15.13
2023-12-14T12:27:57.074Z,20.25
2023-12-14T12:30:25.123Z,14.80
2023-12-14T12:32:53.488Z,18.63
2023-12-14T12:35:21.930Z,22.52
2023-12-14T12:37:55.224Z,18.52
2023-12-14T12:40:31.546Z,19.65
2023-12-14T12:42:59.440Z,19.23
2023-12-14T12:45:29.667Z,17.95
2023-12-14T12:47:58.625Z,19.45
2023-12-14T12:50:26.724Z,19.00
2023-12-14T12:52:54.930Z,38.00
2023-12-14T12:55:22.623Z,21.52
2023-12-14T12:57:53.234Z,19.02
2023-12-14T13:00:21.412Z,16.98
2023-12-14T13:02:49.172Z,14.65
2023-12-14T13:05:18.695Z,16.88
2023-12-14T13:07:48.835Z,17.27
2023-12-14T13:10:28.274Z,17.25
2023-12-14T13:13:01.765Z,17.23
2023-12-14T13:15:32.425Z,13.23
2023-12-14T13:18:00.372Z,13.50
2023-12-14T13:20:28.513Z,15.02
2023-12-14T13:22:56.617Z,14.05
2023-12-14T13:25:27.758Z,14.32
2023-12-14T13:27:55.721Z,15.02
2023-12-14T13:30:26.068Z,17.40
2023-12-14T13:32:55.612Z,17.60
2023-12-14T13:35:26.149Z,14.10
2023-12-14T13:37:54.197Z,14.30
2023-12-14T13:40:22.205Z,19.80
2023-12-14T13:42:59.427Z,17.27
2023-12-14T13:45:35.350Z,16.08
2023-12-14T13:48:03.314Z,16.00
2023-12-14T13:50:31.294Z,14.73
2023-12-14T13:52:59.617Z,15.90
2023-12-14T13:55:27.574Z,15.57
2023-12-14T13:57:59.478Z,20.25
2023-12-14T14:00:27.430Z,17.10
2023-12-14T14:02:58.289Z,18.45
2023-12-14T14:05:26.117Z,18.27
2023-12-14T14:07:54.025Z,17.40
2023-12-14T14:10:21.740Z,14.55
2023-12-14T14:12:49.553Z,16.65
2023-12-14T14:15:17.347Z,17.35
2023-12-14T14:17:45.286Z,16.33
2023-12-14T14:20:16.258Z,16.80
2023-12-14T14:22:44.307Z,18.95
2023-12-14T14:25:12.082Z,21.13
2023-12-14T14:27:42.009Z,27.17
2023-12-14T14:30:11.022Z,58.08
2023-12-14T14:32:39.677Z,24.05
2023-12-14T14:35:08.727Z,21.17
2023-12-14T14:37:39.130Z,25.20
2023-12-14T14:40:08.576Z,18.85
2023-12-14T14:42:37.164Z,22.52
2023-12-14T14:45:09.728Z,21.83
2023-12-14T14:47:38.672Z,20.65
2023-12-14T14:50:08.695Z,21.38
2023-12-14T14:52:39.720Z,19.98
2023-12-14T14:55:08.470Z,20.15
2023-12-14T14:57:36.273Z,21.08
2023-12-14T15:00:05.355Z,23.67
2023-12-14T15:02:33.203Z,27.95
2023-12-14T15:05:01.255Z,57.25
2023-12-14T15:07:30.509Z,56.67
2023-12-14T15:10:00.967Z,73.45
2023-12-14T15:12:28.707Z,39.50
2023-12-14T15:14:57.456Z,37.47
2023-12-14T15:17:25.483Z,19.75
2023-12-14T15:19:53.208Z,24.08
2023-12-14T15:22:21.720Z,95.20
2023-12-14T15:24:50.162Z,22.85
2023-12-14T15:27:20.339Z,25.50
2023-12-14T15:29:47.922Z,28.83
2023-12-14T15:32:16.298Z,19.13
2023-12-14T15:34:44.109Z,20.83
2023-12-14T15:37:11.863Z,25.00
2023-12-14T15:39:39.409Z,23.60
2023-12-14T15:42:07.737Z,26.52
2023-12-14T15:44:37.990Z,30.52
2023-12-14T15:47:06.191Z,29.52
2023-12-14T15:49:33.839Z,33.42
2023-12-14T15:52:01.520Z,22.50
2023-12-14T15:54:29.416Z,20.13
2023-12-14T15:56:57.222Z,18.63
2023-12-14T15:59:25.283Z,17.83
2023-12-14T16:01:56.111Z,18.75
2023-12-14T16:04:23.733Z,18.48
2023-12-14T16:06:51.640Z,14.63
2023-12-14T16:09:19.549Z,14.80
2023-12-14T16:11:47.462Z,15.95
2023-12-14T16:14:15.557Z,15.48
2023-12-14T16:16:43.921Z,19.75
2023-12-14T16:19:14.651Z,18.40
2023-12-14T16:21:42.334Z,19.80
2023-12-14T16:24:10.086Z,23.05
2023-12-14T16:26:40.470Z,15.45
2023-12-14T16:29:08.375Z,15.88
2023-12-14T16:31:42.346Z,12.35
2023-12-14T16:34:10.308Z,14.70
2023-12-14T16:36:43.213Z,15.10
2023-12-14T16:39:13.046Z,14.57
2023-12-14T16:41:42.217Z,15.60
2023-12-14T16:44:11.437Z,16.83
2023-12-14T16:46:39.622Z,21.10
2023-12-14T16:49:07.488Z,23.00
2023-12-14T16:51:35.605Z,25.83
2023-12-14T16:54:06.320Z,18.65
2023-12-14T16:56:34.500Z,20.20
2023-12-14T16:59:02.266Z,17.08
2023-12-14T17:01:30.029Z,20.15
2023-12-14T17:03:58.785Z,16.48
2023-12-14T17:06:26.540Z,16.05
2023-12-14T17:08:54.769Z,14.15
2023-12-14T17:11:25.371Z,15.15
2023-12-14T17:13:53.161Z,15.43
2023-12-14T17:16:21.869Z,15.77
2023-12-14T17:18:49.878Z,14.88
2023-12-14T17:21:19.449Z,17.38
2023-12-14T17:23:48.207Z,17.25
2023-12-14T17:26:17.164Z,14.55
2023-12-14T17:28:49.533Z,14.60
2023-12-14T17:31:18.999Z,14.23
2023-12-14T17:33:47.895Z,13.85
2023-12-14T17:36:15.828Z,12.68
2023-12-14T17:38:44.437Z,14.98
2023-12-14T17:41:13.938Z,15.75
2023-12-14T17:43:42.310Z,13.10
2023-12-14T17:46:14.240Z,13.02
2023-12-14T17:48:42.335Z,14.52
2023-12-14T17:51:10.277Z,13.90
2023-12-14T17:53:43.338Z,14.02
2023-12-14T17:56:11.668Z,13.70
2023-12-14T17:58:39.688Z,15.60
2023-12-14T18:01:07.807Z,19.85
2023-12-14T18:03:38.532Z,18.92
2023-12-14T18:06:11.615Z,18.85
2023-12-14T18:08:39.614Z,18.65
2023-12-14T18:11:08.129Z,17.80
2023-12-14T18:13:36.033Z,19.20
2023-12-14T18:16:04.520Z,19.40
2023-12-14T18:18:32.666Z,22.38
2023-12-14T18:21:05.138Z,20.60
2023-12-14T18:23:33.385Z,23.60
2023-12-14T18:26:01.513Z,23.58
2023-12-14T18:28:29.843Z,26.02
2023-12-14T18:30:58.209Z,22.52
2023-12-14T18:33:26.544Z,29.30
2023-12-14T18:35:55.307Z,25.98
2023-12-14T18:38:26.294Z,22.42
2023-12-14T18:40:54.699Z,19.13
2023-12-14T18:43:22.791Z,24.23
2023-12-14T18:45:50.648Z,18.58
2023-12-14T18:48:18.797Z,19.40
2023-12-14T18:50:46.559Z,18.88
2023-12-14T18:53:14.547Z,16.98
2023-12-14T18:55:45.405Z,15.93
2023-12-14T18:58:13.795Z,17.08
2023-12-14T19:00:45.906Z,14.85
2023-12-14T19:03:14.446Z,21.88
2023-12-14T19:05:42.524Z,16.30
2023-12-14T19:08:10.611Z,16.40
2023-12-14T19:10:38.622Z,15.93
2023-12-14T19:13:12.111Z,16.88
2023-12-14T19:15:43.595Z,18.23
2023-12-14T19:18:12.649Z,16.88
2023-12-14T19:20:41.724Z,18.40
2023-12-14T19:23:09.932Z,17.42
2023-12-14T19:25:37.905Z,19.02
2023-12-14T19:28:08.857Z,19.85
2023-12-14T19:30:36.937Z,17.65
2023-12-14T19:33:05.002Z,17.80
2023-12-14T19:35:32.987Z,15.30
2023-12-14T19:38:01.008Z,15.68
2023-12-14T19:40:29.054Z,15.52
2023-12-14T19:42:57.241Z,16.00
2023-12-14T19:45:28.087Z,14.38
2023-12-14T19:47:58.273Z,19.05
2023-12-14T19:50:28.030Z,15.93
2023-12-14T19:52:56.143Z,18.15
2023-12-14T19:55:23.945Z,16.98
2023-12-14T19:57:53.096Z,14.52
2023-12-14T20:00:21.867Z,20.27
2023-12-14T20:02:52.422Z,15.60
2023-12-14T20:05:20.618Z,14.38
2023-12-14T20:07:48.915Z,16.95
2023-12-14T20:10:17.130Z,18.38
2023-12-14T20:12:45.358Z,17.30
2023-12-14T20:15:15.121Z,19.88
2023-12-14T20:17:43.561Z,20.00
2023-12-14T20:20:14.941Z,22.05
2023-12-14T20:22:42.844Z,19.30
2023-12-14T20:25:11.188Z,19.50
2023-12-14T20:27:39.495Z,21.30
2023-12-14T20:30:09.126Z,18.80
2023-12-14T20:32:37.510Z,22.67
2023-12-14T20:35:06.725Z,26.38
2023-12-14T20:37:37.460Z,27.20
2023-12-14T20:40:14.044Z,21.67
2023-12-14T20:42:42.397Z,19.90
2023-12-14T20:45:11.498Z,19.75
2023-12-14T20:47:39.668Z,19.40
2023-12-14T20:50:09.525Z,17.33
2023-12-14T20:52:43.358Z,20.08
2023-12-14T20:55:12.027Z,15.32
2023-12-14T20:57:40.551Z,18.15
2023-12-14T21:00:12.868Z,24.52
2023-12-14T21:02:43.760Z,19.88
2023-12-14T21:05:11.679Z,19.88
2023-12-14T21:07:42.321Z,29.50
2023-12-14T21:10:10.677Z,29.33
2023-12-14T21:12:38.635Z,38.70
2023-12-14T21:15:07.383Z,29.77
2023-12-14T21:17:36.551Z,35.70
2023-12-14T21:20:05.508Z,25.30
2023-12-14T21:22:33.542Z,27.17
2023-12-14T21:25:07.387Z,22.80
2023-12-14T21:27:48.031Z,21.67
2023-12-14T21:30:18.228Z,22.67
2023-12-14T21:32:47.158Z,20.08
2023-12-14T21:35:15.243Z,24.27
2023-12-14T21:37:43.412Z,24.58
2023-12-14T21:40:16.445Z,22.73
2023-12-14T21:42:44.367Z,25.98
2023-12-14T21:45:12.807Z,23.85
2023-12-14T21:47:44.268Z,26.33
2023-12-14T21:50:12.778Z,23.65
2023-12-14T21:52:41.416Z,29.33
2023-12-14T21:55:09.960Z,29.52
2023-12-14T21:57:40.632Z,29.70
2023-12-14T22:00:09.921Z,29.27
2023-12-14T22:02:38.077Z,27.08
2023-12-14T22:05:06.752Z,32.70
2023-12-14T22:07:35.109Z,25.20
2023-12-14T22:10:04.702Z,26.90
2023-12-14T22:12:32.927Z,27.40
2023-12-14T22:15:03.645Z,24.45
2023-12-14T22:17:31.505Z,27.02
2023-12-14T22:19:59.342Z,23.80
2023-12-14T22:22:27.351Z,20.30
2023-12-14T22:24:55.394Z,21.02
2023-12-14T22:27:23.394Z,21.33
2023-12-14T22:29:51.259Z,26.05
2023-12-14T22:32:22.091Z,26.90
2023-12-14T22:34:50.181Z,31.13
2023-12-14T22:37:18.374Z,35.08
2023-12-14T22:39:48.667Z,27.67
2023-12-14T22:42:16.361Z,27.45
2023-12-14T22:44:44.220Z,29.13
2023-12-14T22:47:13.461Z,24.50
2023-12-14T22:49:44.229Z,27.52
2023-12-14T22:52:12.177Z,23.40
2023-12-14T22:54:40.855Z,22.50
2023-12-14T22:57:09.046Z,23.20
2023-12-14T22:59:40.316Z,20.88
2023-12-14T23:02:08.259Z,22.83
2023-12-14T23:04:36.246Z,19.60
2023-12-14T23:07:06.811Z,21.77
2023-12-14T23:09:34.808Z,23.77
2023-12-14T23:12:02.750Z,23.55
2023-12-14T23:14:30.562Z,23.08
2023-12-14T23:16:58.472Z,18.08
2023-12-14T23:19:26.926Z,24.33
2023-12-14T23:21:55.401Z,30.80
2023-12-14T23:24:26.219Z,22.98
2023-12-14T23:26:54.197Z,26.10
2023-12-14T23:29:22.166Z,23.13
2023-12-14T23:31:50.125Z,27.25
2023-12-14T23:34:18.270Z,21.88
2023-12-14T23:36:46.119Z,22.60
2023-12-14T23:39:14.135Z,25.25
2023-12-14T23:41:44.973Z,26.30
2023-12-14T23:44:13.700Z,27.58
2023-12-14T23:46:42.105Z,20.42
2023-12-14T23:49:10.238Z,23.25
2023-12-14T23:51:38.145Z,26.17
2023-12-14T23:54:06.526Z,20.00
2023-12-14T23:56:34.522Z,26.15
2023-12-14T23:59:05.269Z,30.50
